x

9441102 - Westport, Wa (wptw1) Weather Station

1:36am - Wed 1st Apr 2015 All times are PDT. -7 hours from GMT.

  • Wind
    11mph, 14mph gusts
  • Sea Temp 54°f
  • 空気 Temp 49°f
  • Sea Pressure 1024.6mb
  • 9441102 - Westport, Wa
  • 9441102 - Westport, Wa

More Historic Weather Station data

Upgrade to MSW Pro to gain access to the past 30 days of data for over 8000 Wavebouys and Weather Stations around the globe.

Join Pro

Comparision Forecast

View Surf forecast
   
Wed 04/01 1:36am 11 14 mph 1024.6mb 54f 49f
1:30am 11 14 mph 1024.6mb 54f 49f
1:24am 11 14 mph 1024.5mb 54f 49f
1:18am 13 15 mph 1024.5mb 54f 49f
1:12am 10 14 mph 1024.4mb 54f 49f
1:06am 10 14 mph 1024.4mb 54f 49f
1:00am 11 15 mph 1024.4mb 54f 49f
12:36am 11 15 mph 1024.3mb 54f 49f
12:30am 13 15 mph 1024.2mb 54f 49f
12:24am 11 17 mph 1024.2mb 54f 48f
12:18am 10 14 mph 1024.1mb 54f 49f
12:12am 10 15 mph 1024.2mb 54f 49f
12:06am 13 15 mph 1024.2mb 54f 48f
12:00am 10 13 mph 1024.2mb 54f 48f
Tue 03/31 11:36pm 11 17 mph 1024mb 54f 49f
11:30pm 14 17 mph 1024mb 54f 49f
11:24pm 14 16 mph 1023.9mb 54f 49f
11:18pm 13 15 mph 1024mb 54f 49f
11:12pm 11 16 mph 1024mb 54f 49f
11:06pm 13 15 mph 1024mb 54f 48f
11:00pm 13 15 mph 1024mb 54f 48f
10:36pm 11 15 mph 1023.7mb 54f 48f
10:30pm 13 15 mph 1023.6mb 54f 48f
10:24pm 10 14 mph 1023.6mb 54f 48f
10:18pm 13 16 mph 1023.5mb 55f 48f
10:12pm 14 16 mph 1023.5mb 55f 49f
10:06pm 13 16 mph 1023.4mb 55f 48f
10:00pm 11 14 mph 1023.4mb 55f 48f
9:36pm 9 13 mph 1023.3mb 55f 47f
9:30pm 10 15 mph 1023.2mb 55f 48f
9:24pm 11 20 mph 1023.2mb 55f 47f
9:18pm 23 33 mph 1023.1mb 55f 49f
9:12pm 18 21 mph 1023mb 55f 50f
9:06pm 18 22 mph 1023mb 55f 50f
9:00pm 17 21 mph 1022.9mb 55f 50f
8:36pm 18 21 mph 1022.7mb 55f 50f
8:30pm 18 22 mph 1022.6mb 55f 50f
8:24pm 16 18 mph 1022.5mb 55f 50f
8:18pm 16 18 mph 1022.4mb 55f 50f
8:12pm 16 18 mph 1022.4mb 55f 50f
8:06pm 18 20 mph 1022.3mb 55f 50f
8:00pm 15 20 mph 1022.2mb 55f 50f
7:36pm 15 17 mph 1022.1mb 55f 50f
7:30pm 15 18 mph 1022.1mb 55f 50f
7:24pm 15 18 mph 1022.1mb 55f 50f
7:18pm 14 20 mph 1022.1mb 55f 50f
7:12pm 15 18 mph 1022.1mb 55f 50f
7:06pm 15 20 mph 1022.1mb 55f 50f
7:00pm 16 18 mph 1022.1mb 55f 50f
6:36pm 16 20 mph 1022.1mb 55f 50f
6:30pm 16 21 mph 1022.1mb 55f 50f
6:24pm 15 18 mph 1022mb 55f 51f
6:18pm 16 21 mph 1022mb 55f 51f
6:12pm 17 20 mph 1022mb 55f 51f
6:06pm 17 21 mph 1022.1mb 55f 51f
6:00pm 16 21 mph 1022.1mb 55f 51f
5:36pm 21 23 mph 1021.9mb 55f 51f
5:30pm 17 22 mph 1021.8mb 55f 51f
5:24pm 16 21 mph 1021.8mb 55f 51f
5:18pm 16 20 mph 1021.7mb 55f 51f
5:12pm 18 21 mph 1021.7mb 55f 51f
5:06pm 20 22 mph 1021.6mb 55f 51f
5:00pm 18 23 mph 1021.6mb 55f 50f
4:36pm 18 22 mph 1021.7mb 55f 52f
3:36pm 22 26 mph 1021.7mb 55f 51f
3:30pm 17 24 mph 1021.7mb 55f 52f
3:24pm 21 24 mph 1021.6mb 55f 51f
3:18pm 18 22 mph 1021.6mb 55f 51f
3:12pm 15 21 mph 1021.6mb 55f 51f
3:06pm 17 22 mph 1021.5mb 55f 51f
3:00pm 21 22 mph 1021.5mb 55f 51f
2:36pm 15 18 mph 1021.3mb 55f 51f
2:30pm 14 20 mph 1021.2mb 54f 51f
2:24pm 17 21 mph 1021.2mb 54f 52f
2:18pm 20 22 mph 1021mb 54f 52f
2:12pm 20 23 mph 1021.1mb 54f 51f
2:06pm 17 22 mph 1021mb 54f 52f
2:00pm 17 22 mph 1020.9mb 54f 52f
1:36pm 20 22 mph 1020.8mb 54f 52f
1:30pm 20 22 mph 1020.8mb 54f 51f
1:24pm 17 21 mph 1020.8mb 54f 51f
1:18pm 18 21 mph 1020.7mb 54f 52f
1:12pm 16 20 mph 1020.7mb 54f 52f
1:06pm 17 20 mph 1020.6mb 54f 53f
1:00pm 17 18 mph 1020.6mb 54f 53f
12:36pm 15 16 mph 1020.4mb 54f 53f
12:30pm 15 17 mph 1020.3mb 54f 52f
12:24pm 14 17 mph 1020.3mb 54f 52f
12:18pm 15 17 mph 1020.3mb 54f 51f
12:12pm 15 17 mph 1020.3mb 54f 51f
12:06pm 17 20 mph 1020.2mb 54f 52f
12:00pm 17 21 mph 1020.2mb 54f 51f
11:36am 24 29 mph 1019.9mb 54f 50f
11:30am 24 28 mph 1019.9mb 54f 51f
11:24am 15 18 mph 1019.8mb 54f 52f
11:18am 14 15 mph 1019.7mb 54f 52f
11:12am 11 14 mph 1019.6mb 54f 51f
11:06am 10 13 mph 1019.6mb 54f 51f
11:00am 10 14 mph 1019.6mb 54f 51f
10:36am 11 13 mph 1019.3mb 54f 52f
10:30am 11 14 mph 1019.2mb 54f 52f
10:24am 14 15 mph 1019.1mb 54f 52f
10:18am 13 14 mph 1019mb 54f 51f
10:12am 13 14 mph 1018.9mb 54f 51f
10:06am 14 16 mph 1018.8mb 54f 51f
10:00am 13 15 mph 1018.7mb 54f 51f
9:36am 15 17 mph 1018.4mb 54f 51f
9:30am 14 15 mph 1018.3mb 54f 51f
9:24am 14 16 mph 1018.3mb 54f 51f
9:18am 14 18 mph 1018.2mb 54f 50f
9:12am 16 18 mph 1018.1mb 54f 50f
9:06am 17 21 mph 1017.9mb 54f 50f
9:00am 18 21 mph 1017.8mb 54f 51f
8:36am 17 18 mph 1017.6mb 54f 51f
8:30am 15 20 mph 1017.5mb 54f 51f
8:24am 17 20 mph 1017.5mb 54f 50f
8:18am 17 20 mph 1017.5mb 54f 50f
8:12am 20 22 mph 1017.5mb 54f 50f
8:06am 21 23 mph 1017.4mb 54f 51f
8:00am 15 17 mph 1017.3mb 54f 51f
7:36am 17 20 mph 1017.3mb 54f 50f
7:30am 16 20 mph 1017.2mb 54f 50f
7:24am 20 21 mph 1017.2mb 54f 50f
7:18am 17 20 mph 1017.2mb 54f 50f
7:12am 20 22 mph 1017.1mb 54f 50f
7:06am 18 22 mph 1017.1mb 54f 50f
7:00am 20 22 mph 1017.1mb 54f 50f
6:36am 21 23 mph 1016.7mb 54f 50f
6:30am 21 24 mph 1016.6mb 54f 49f
6:24am 15 21 mph 1016.6mb 54f 49f
6:18am 14 16 mph 1016.6mb 54f 49f
6:12am 16 24 mph 1016.5mb 54f 48f
6:06am 20 26 mph 1016.5mb 54f 48f
6:00am 13 25 mph 1016.5mb 54f 47f
5:36am 8 11 mph 1016.4mb 54f 45f
5:30am 8 16 mph 1016.4mb 54f 46f
5:24am 22 29 mph 1016.4mb 54f 46f
5:18am 14 15 mph 1016.3mb 54f 49f
5:12am 14 17 mph 1016.2mb 54f 49f
5:06am 16 17 mph 1016.1mb 54f 50f
5:00am 15 18 mph 1016mb 54f 49f
4:36am 16 21 mph 1015.9mb 54f 50f
4:30am 17 20 mph 1015.8mb 54f 50f
4:24am 17 20 mph 1015.7mb 54f 49f
4:18am 18 21 mph 1015.6mb 54f 49f
4:12am 16 18 mph 1015.6mb 54f 49f
4:06am 16 20 mph 1015.6mb 54f 49f
4:00am 18 20 mph 1015.5mb 54f 49f
3:36am 14 18 mph 1015.4mb 54f 49f
3:30am 16 20 mph 1015.4mb 54f 49f
3:24am 16 20 mph 1015.3mb 54f 49f
3:18am 15 20 mph 1015.2mb 54f 49f
3:12am 16 18 mph 1015.2mb 54f 49f
3:06am 16 20 mph 1015.1mb 54f 49f
3:00am 17 20 mph 1015.1mb 54f 49f
2:36am 17 20 mph 1015mb 54f 49f
2:30am 16 20 mph 1014.9mb 54f 49f
2:24am 16 18 mph 1014.9mb 54f 49f
2:18am 18 21 mph 1014.8mb 54f 48f
2:12am 17 21 mph 1014.7mb 54f 48f
2:06am 17 20 mph 1014.6mb 54f 48f
2:00am 18 21 mph 1014.5mb 54f 48f
1:54am 18 25 mph 1014.4mb 54f 49f
1:48am 24 28 mph 1014.2mb 54f 49f
1:36am 22 24 mph 1014.1mb 54f 49f
1:30am 23 26 mph 1014mb 54f 49f
1:24am 23 25 mph 1014mb 54f 49f
1:18am 24 28 mph 1013.9mb 54f 49f
1:12am 22 25 mph 1014mb 54f 49f
1:06am 20 25 mph 1013.9mb 54f 49f
1:00am 22 25 mph 1013.9mb 54f 48f
12:54am 22 24 mph 1013.7mb 54f 48f
12:48am 17 22 mph 1013.6mb 54f 48f
12:36am 22 26 mph 1013.5mb 54f 48f
12:30am 22 25 mph 1013.5mb 54f 48f
12:24am 22 25 mph 1013.5mb 54f 48f
12:18am 16 20 mph 1013.4mb 54f 48f
12:12am 18 22 mph 1012.9mb 54f 47f
12:06am 20 22 mph 1012.9mb 54f 47f
12:00am 21 24 mph 1012.8mb 54f 47f
Mon 03/30 11:54pm 21 26 mph 1012.8mb 54f 47f
11:48pm 23 28 mph 1012.8mb 54f 48f
11:36pm 29 31 mph 1012.5mb 54f 48f
11:30pm 26 30 mph 1012.3mb 54f 48f
11:24pm 29 32 mph 1012.3mb 54f 48f
11:18pm 31 36 mph 1012.2mb 54f 48f
11:12pm 30 33 mph 1012mb 54f 48f
11:06pm 29 34 mph 1011.9mb 54f 48f
11:00pm 29 34 mph 1011.8mb 54f 48f
10:54pm 31 34 mph 1011.5mb 55f 48f
10:48pm 30 34 mph 1011.4mb 55f 48f
10:36pm 31 36 mph 1011.3mb 55f 49f
10:30pm 14 31 mph 1011.1mb 55f 49f
10:24pm 13 17 mph 1011.1mb 55f 51f
10:18pm 15 21 mph 1011mb 54f 51f
10:12pm 20 26 mph 1011.1mb 54f 51f
10:06pm 16 24 mph 1011mb 54f 53f
10:00pm 20 26 mph 1010.7mb 54f 53f
9:36pm 14 22 mph 1011mb 55f 52f
9:30pm 16 28 mph 1011mb 55f 52f
9:24pm 14 21 mph 1011.1mb 55f 52f
9:18pm 15 22 mph 1011.2mb 55f 52f
9:12pm 15 23 mph 1011.2mb 55f 53f
9:06pm 17 24 mph 1011.2mb 55f 53f
9:00pm 20 28 mph 1011.3mb 55f 53f
8:54pm 17 23 mph 1011.4mb 55f 53f
8:48pm 15 21 mph 1011.4mb 55f 53f
8:36pm 16 24 mph 1011.3mb 55f 53f
8:30pm 16 26 mph 1011.2mb 55f 53f
8:24pm 17 25 mph 1011.4mb 55f 53f
8:18pm 17 26 mph 1011.3mb 55f 53f
8:12pm 14 21 mph 1011.4mb 55f 53f
8:06pm 14 22 mph 1011.5mb 55f 53f
8:00pm 14 20 mph 1011.5mb 55f 53f
7:54pm 15 22 mph 1011.5mb 55f 53f
7:48pm 16 24 mph 1011.4mb 55f 53f
7:36pm 13 22 mph 1011.6mb 55f 53f
7:30pm 11 20 mph 1012.1mb 55f 53f
7:24pm 15 23 mph 1012.3mb 55f 53f
7:18pm 13 18 mph 1012.3mb 55f 53f
7:12pm 11 18 mph 1012.4mb 55f 53f
7:06pm 14 21 mph 1012.6mb 55f 53f
7:00pm 15 21 mph 1012.6mb 55f 53f
6:54pm 13 20 mph 1012.7mb 55f 53f
6:48pm 14 21 mph 1012.7mb 55f 54f
6:36pm 15 22 mph 1012.7mb 55f 54f
6:30pm 13 21 mph 1012.8mb 55f 54f
6:24pm 14 21 mph 1012.9mb 55f 54f
6:18pm 13 18 mph 1012.9mb 55f 54f
6:12pm 11 18 mph 1013.1mb 55f 54f
6:06pm 11 17 mph 1013.1mb 55f 54f
6:00pm 14 20 mph 1013.3mb 55f 54f
5:54pm 17 22 mph 1013.4mb 55f 54f
5:48pm 14 21 mph 1013.5mb 55f 54f
5:36pm 16 22 mph 1013.5mb 55f 54f
5:30pm 15 21 mph 1013.5mb 55f 55f
5:24pm 16 22 mph 1013.5mb 55f 55f
5:18pm 13 22 mph 1013.4mb 55f 55f
5:12pm 14 22 mph 1013.5mb 55f 55f
5:06pm 15 21 mph 1013.6mb 55f 55f
5:00pm 13 18 mph 1013.7mb 55f 55f
4:54pm 13 17 mph 1013.7mb 55f 55f
4:48pm 14 18 mph 1013.8mb 55f 55f
4:36pm 14 21 mph 1013.9mb 55f 55f
4:30pm 16 21 mph 1013.9mb 55f 56f
4:24pm 14 20 mph 1013.9mb 55f 56f
4:18pm 13 18 mph 1013.9mb 55f 56f
4:12pm 8 14 mph 1013.9mb 55f 56f
4:06pm 9 14 mph 1014mb 55f 57f
4:00pm 9 14 mph 1014mb 55f 57f
3:54pm 10 18 mph 1014.1mb 55f 56f
3:48pm 10 22 mph 1014.2mb 55f 56f
3:36pm 14 21 mph 1014.4mb 55f 56f
3:30pm 17 23 mph 1014.5mb 55f 55f
3:24pm 14 18 mph 1014.8mb 55f 56f
3:18pm 11 18 mph 1014.8mb 55f 56f
3:12pm 11 17 mph 1015.1mb 55f 56f
3:06pm 14 20 mph 1015.1mb 55f 56f
3:00pm 14 18 mph 1015.3mb 55f 56f
2:54pm 10 20 mph 1015.3mb 55f 56f
2:48pm 10 18 mph 1015.5mb 55f 56f
2:36pm 14 20 mph 1015.8mb 55f 56f
2:30pm 10 18 mph 1015.9mb 55f 55f
2:24pm 10 16 mph 1015.9mb 55f 55f
2:18pm 11 17 mph 1016mb 55f 55f
2:12pm 9 16 mph 1016.1mb 55f 55f
2:06pm 9 17 mph 1016.3mb 55f 55f
2:00pm 15 20 mph 1016.4mb 55f 55f
1:54pm 14 18 mph 1016.5mb 55f 55f
1:48pm 10 16 mph 1016.5mb 55f 55f
1:36pm 8 15 mph 1016.7mb 54f 55f
1:30pm 11 16 mph 1016.9mb 54f 55f
1:24pm 13 18 mph 1017mb 54f 55f
1:18pm 13 17 mph 1017.1mb 54f 55f
1:12pm 11 17 mph 1017.1mb 54f 55f
1:06pm 8 15 mph 1017.1mb 54f 54f
1:00pm 10 17 mph 1017.2mb 54f 54f
12:54pm 11 18 mph 1017.2mb 54f 54f
12:48pm 14 17 mph 1017.3mb 54f 54f
12:36pm 14 18 mph 1017.6mb 54f 53f
12:30pm 10 15 mph 1017.6mb 54f 53f
12:24pm 9 15 mph 1017.7mb 54f 53f
12:18pm 11 16 mph 1017.9mb 54f 53f
12:12pm 10 17 mph 1018mb 54f 53f
12:06pm 9 17 mph 1018mb 54f 53f
12:00pm 10 15 mph 1018mb 54f 53f
11:54am 9 16 mph 1018mb 54f 53f
11:48am 9 16 mph 1018mb 54f 53f
11:36am 10 14 mph 1018mb 54f 53f
11:30am 9 16 mph 1018.1mb 54f 52f
11:24am 9 14 mph 1018.2mb 54f 52f
11:18am 8 13 mph 1018.2mb 54f 53f
11:12am 9 15 mph 1018.2mb 54f 53f
11:06am 9 14 mph 1018.1mb 54f 52f
11:00am 8 14 mph 1018.1mb 54f 52f
10:54am 10 14 mph 1018.1mb 54f 52f
10:48am 9 16 mph 1018.2mb 54f 52f
10:36am 7 11 mph 1018.1mb 54f 52f
10:30am 9 13 mph 1018.2mb 54f 52f
10:24am 9 14 mph 1018.2mb 54f 52f
10:18am 8 13 mph 1018.2mb 54f 52f
10:12am 9 13 mph 1018.3mb 54f 52f
10:06am 8 15 mph 1018.3mb 54f 52f
10:00am 9 14 mph 1018.3mb 54f 52f
9:54am 9 13 mph 1018.4mb 54f 52f
9:48am 9 14 mph 1018.4mb 54f 52f
9:36am 11 17 mph - - -
9:30am 10 15 mph - - -
9:24am 10 18 mph - - -
9:18am 10 18 mph - - -
9:12am 9 15 mph - - -
9:06am 9 15 mph - - -
9:00am 9 16 mph - - -
8:54am 10 17 mph - - -
8:48am 11 17 mph - - -
8:36am 9 15 mph - - -
8:30am 9 13 mph - - -
8:24am 9 15 mph 1018.9mb 54f 52f
8:18am 9 13 mph 1018.8mb 54f 52f
8:12am 10 15 mph 1018.8mb 54f 52f
8:06am 9 14 mph 1018.8mb 54f 52f
8:00am 9 14 mph 1018.7mb 54f 52f
7:54am 10 14 mph 1018.7mb 54f 52f
7:48am 8 11 mph 1018.8mb 54f 51f
7:36am  -  mph 1018.8mb 54f 51f
7:30am  -  mph 1018.8mb 54f 51f
7:24am  -  mph 1018.8mb 54f 51f
7:18am  -  mph 1018.8mb 54f 51f
7:12am  -  mph 1018.9mb 54f 51f
7:06am  -  mph 1018.9mb 54f 51f
7:00am  -  mph 1018.8mb 54f 51f
6:54am  -  mph 1018.9mb 54f 51f
6:48am  -  mph 1019mb 54f 52f
6:36am  -  mph 1019.1mb 54f 51f
6:30am  -  mph 1019.1mb 54f 51f
6:24am  -  mph 1019.1mb 54f 52f
6:18am  -  mph 1019.1mb 54f 52f
6:12am  -  mph 1019mb 54f 52f
6:06am  -  mph 1019.1mb 54f 52f
6:00am  -  mph 1019.1mb 54f 52f
5:54am  -  mph 1019.1mb 54f 52f
5:48am  -  mph 1019.2mb 54f 52f
5:36am 10 14 mph 1019.3mb 54f 52f
5:30am 10 14 mph 1019.3mb 54f 52f
5:24am 11 16 mph 1019.3mb 54f 52f
5:18am 13 18 mph 1019.4mb 54f 52f
5:12am 8 15 mph 1019.3mb 54f 52f
5:06am 11 16 mph 1019.3mb 54f 52f
5:00am 10 14 mph 1019.4mb 54f 52f
4:54am 9 14 mph 1019.5mb 54f 52f
4:48am 9 14 mph 1019.5mb 54f 52f
4:36am 9 14 mph 1019.6mb 54f 53f
4:30am 9 14 mph 1019.5mb 54f 53f
4:24am 9 14 mph 1019.6mb 54f 53f
4:18am 9 14 mph 1019.6mb 54f 53f
4:12am 10 14 mph 1019.6mb 54f 53f
4:06am 8 15 mph 1019.6mb 54f 53f
4:00am 8 15 mph 1019.7mb 54f 53f
3:54am 11 15 mph 1019.7mb 54f 53f
3:48am 9 16 mph 1019.7mb 54f 53f
3:36am 11 16 mph 1019.9mb 54f 53f
3:30am 10 16 mph 1020mb 54f 53f
3:24am 11 16 mph 1020mb 54f 53f
3:18am 11 16 mph 1020.1mb 54f 53f
3:12am 13 17 mph 1020.2mb 54f 53f
3:06am 10 14 mph 1020.1mb 54f 53f
3:00am 10 15 mph 1020.1mb 54f 53f
2:54am 9 13 mph 1020.1mb 54f 53f
2:48am 8 13 mph 1020mb 54f 53f
2:36am 10 14 mph 1020mb 54f 53f
2:30am 10 15 mph 1020.1mb 54f 53f
2:24am 11 14 mph 1020.2mb 54f 53f
2:18am 10 16 mph 1020.2mb 54f 53f
2:12am 8 15 mph 1020.2mb 54f 53f
2:06am 9 14 mph 1020.3mb 54f 53f
2:00am 9 13 mph 1020.2mb 54f 53f
1:54am 10 15 mph 1020.2mb 54f 53f
1:48am 11 17 mph 1020.2mb 54f 53f
1:36am  -  mph 1020.4mb 54f 53f
1:30am  -  mph 1020.4mb 54f 53f
1:24am  -  mph 1020.5mb 54f 53f
1:18am  -  mph 1020.5mb 54f 53f
1:12am  -  mph 1020.5mb 54f 53f
1:06am  -  mph 1020.4mb 54f 53f
1:00am  -  mph 1020.3mb 54f 53f
12:54am  -  mph 1020.4mb 54f 53f
12:48am  -  mph 1020.5mb 54f 53f
12:36am 10 15 mph 1020.5mb 54f 53f
12:30am 10 14 mph 1020.6mb 54f 53f
12:24am 9 15 mph 1020.6mb 54f 53f
12:18am 10 15 mph - - -
12:12am 9 15 mph - - -
12:06am 9 14 mph - - -
12:00am 10 14 mph - - -
Sun 03/29 11:54pm 8 14 mph - - -
11:48pm 10 14 mph 1020.9mb 54f 53f
11:36pm  -  mph 1021mb 54f 53f
11:30pm  -  mph 1021mb 54f 53f
11:24pm  -  mph 1021.1mb 54f 53f
11:18pm  -  mph 1021.1mb 54f 53f
11:12pm  -  mph 1021.1mb 54f 53f
11:06pm  -  mph 1021.2mb 54f 53f
11:00pm  -  mph 1021.3mb 54f 53f
10:54pm  -  mph 1021.3mb 54f 53f
10:48pm  -  mph 1021.3mb 54f 53f
10:36pm 10 14 mph 1021.3mb 54f 53f
10:30pm 9 14 mph 1021.3mb 54f 53f
10:24pm 8 15 mph 1021.3mb 54f 53f
10:18pm 9 14 mph 1021.3mb 54f 53f
10:12pm 9 14 mph 1021.4mb 54f 53f
10:06pm 9 14 mph 1021.3mb 54f 53f
10:00pm 9 13 mph 1021.3mb 54f 54f
9:54pm 9 14 mph 1021.4mb 54f 54f
9:48pm 9 15 mph 1021.4mb 54f 54f
9:36pm 11 15 mph 1021.4mb 54f 53f
9:30pm 9 17 mph 1021.4mb 54f 53f
9:24pm 10 15 mph 1021.5mb 54f 53f
9:18pm 13 17 mph 1021.4mb 54f 53f
9:12pm 9 17 mph 1021.5mb 54f 53f
9:06pm 11 16 mph 1021.5mb 54f 53f
9:00pm 14 18 mph 1021.5mb 55f 53f
8:54pm 13 17 mph 1021.5mb 55f 53f
8:48pm 13 17 mph 1021.5mb 55f 53f
8:36pm 13 17 mph 1021.4mb 55f 53f
8:30pm 11 16 mph 1021.5mb 55f 53f
8:24pm 9 16 mph 1021.5mb 55f 53f
8:18pm 11 17 mph 1021.6mb 55f 53f
8:12pm 13 18 mph 1021.6mb 55f 53f
8:06pm 14 17 mph 1021.6mb 55f 53f
8:00pm 14 20 mph 1021.5mb 55f 53f
7:54pm 13 17 mph 1021.5mb 55f 53f
7:48pm 13 17 mph 1021.4mb 55f 53f
7:36pm 11 16 mph 1021.4mb 55f 53f
7:30pm 11 17 mph 1021.6mb 55f 53f
7:24pm 9 14 mph 1021.6mb 55f 53f
7:18pm 13 16 mph 1021.6mb 55f 53f
7:12pm 11 18 mph 1021.6mb 55f 53f
7:06pm 13 18 mph 1021.6mb 55f 53f
7:00pm 14 20 mph 1021.6mb 55f 53f
6:54pm 11 18 mph 1021.7mb 55f 53f
6:48pm 14 18 mph 1021.7mb 55f 53f
6:36pm 15 21 mph 1021.8mb 55f 53f
6:30pm 13 18 mph 1021.9mb 55f 53f
6:24pm 11 20 mph 1021.9mb 55f 53f
6:18pm 14 22 mph 1021.9mb 55f 53f
6:12pm 14 20 mph 1022mb 55f 53f
6:06pm 13 20 mph 1022.2mb 54f 53f
6:00pm 15 20 mph 1022.3mb 54f 53f
5:54pm 14 20 mph 1022.2mb 54f 53f
5:48pm 13 21 mph 1022.2mb 54f 53f
5:36pm 16 21 mph 1022.3mb 54f 53f
5:30pm 14 21 mph 1022.3mb 54f 53f
5:24pm 13 21 mph 1022.3mb 54f 53f
5:18pm 14 18 mph 1022.3mb 54f 53f
5:12pm 13 20 mph 1022.3mb 54f 53f
5:06pm 14 22 mph 1022.4mb 54f 53f
5:00pm 14 20 mph 1022.5mb 54f 53f
4:54pm 14 22 mph 1022.6mb 54f 53f
4:48pm 14 22 mph 1022.6mb 54f 53f
4:36pm  -  mph 1022.7mb 54f 53f
4:30pm  -  mph 1022.7mb 54f 53f
4:24pm  -  mph 1022.8mb 54f 53f
4:18pm  -  mph 1022.9mb 54f 53f
4:12pm  -  mph 1022.9mb 54f 53f
4:06pm  -  mph 1022.9mb 54f 53f
4:00pm  -  mph 1022.9mb 54f 53f
3:54pm  -  mph 1022.8mb 54f 53f
3:48pm  -  mph 1022.9mb 54f 53f
3:36pm 15 23 mph 1023.1mb 54f 53f
3:30pm 15 22 mph 1023.1mb 54f 53f
3:24pm 15 23 mph 1023.1mb 54f 53f
3:18pm 14 21 mph 1023.1mb 54f 53f
3:12pm 17 24 mph 1023.1mb 54f 53f
3:06pm 15 23 mph 1023.1mb 54f 53f
3:00pm 16 22 mph 1023.1mb 54f 53f
2:54pm 15 24 mph 1023.2mb 54f 53f
2:48pm 14 24 mph 1023.2mb 54f 53f
2:36pm 14 23 mph 1023.3mb 54f 53f
2:30pm 17 26 mph 1023.3mb 54f 53f
2:24pm 16 23 mph 1023.4mb 54f 53f
2:18pm 16 24 mph 1023.4mb 54f 53f
2:12pm 16 25 mph 1023.5mb 54f 53f
2:06pm 16 26 mph 1023.6mb 54f 53f
2:00pm 15 21 mph 1023.7mb 54f 53f
1:54pm 20 29 mph 1023.7mb 54f 53f
1:48pm 15 25 mph 1023.7mb 54f 53f
1:36pm 16 29 mph 1023.7mb 54f 54f
1:30pm 18 24 mph 1023.6mb 54f 54f
1:24pm 20 28 mph 1023.6mb 54f 53f
1:18pm 18 25 mph 1023.7mb 54f 54f
1:12pm 18 29 mph 1023.7mb 54f 54f
1:06pm 18 25 mph 1023.6mb 54f 53f
1:00pm 20 28 mph 1023.7mb 54f 53f
12:54pm 18 28 mph 1023.8mb 54f 53f
12:48pm 17 24 mph 1023.7mb 54f 53f
12:36pm 16 28 mph 1023.8mb 54f 53f
12:30pm 16 24 mph 1023.8mb 54f 53f
12:24pm 16 22 mph 1023.8mb 54f 53f
12:18pm 16 22 mph 1023.8mb 54f 53f
12:12pm 15 25 mph 1023.9mb 54f 53f
12:06pm 18 24 mph 1023.9mb 54f 53f
12:00pm 18 25 mph 1024mb 54f 53f
11:54am 17 25 mph 1024mb 54f 53f
11:48am 17 26 mph 1024mb 54f 53f
11:36am 16 29 mph 1024.1mb 54f 53f
11:30am 15 24 mph 1024.2mb 54f 53f
11:24am 17 28 mph 1024.1mb 54f 53f
11:18am 16 25 mph 1024.2mb 54f 53f
11:12am 18 25 mph 1024.3mb 54f 53f
11:06am 17 25 mph 1024.3mb 54f 53f
11:00am 17 25 mph 1024.3mb 54f 53f
10:54am 16 22 mph 1024.3mb 54f 53f
10:48am 17 21 mph 1024.3mb 54f 53f
10:36am 17 23 mph 1024.3mb 54f 53f
10:30am 15 25 mph 1024.3mb 54f 53f
10:24am 15 24 mph 1024.3mb 54f 53f
10:18am 17 25 mph 1024.2mb 54f 53f
10:12am 17 25 mph 1024.2mb 54f 53f
10:06am 16 22 mph 1024.1mb 54f 52f
10:00am 17 24 mph 1024.1mb 54f 53f
9:54am 18 24 mph 1024.1mb 54f 53f
9:48am 16 24 mph 1024mb 54f 52f
9:36am 15 23 mph 1024.1mb 54f 52f
9:30am 14 22 mph 1024.1mb 54f 52f
9:24am 15 21 mph 1024.1mb 54f 52f
9:18am 13 22 mph 1024.1mb 54f 52f
9:12am 14 24 mph 1024.1mb 54f 52f
9:06am 15 22 mph 1024.1mb 54f 52f
9:00am 14 24 mph 1024.1mb 54f 52f
8:54am 16 21 mph 1024.2mb 54f 52f
8:48am 14 20 mph 1024.2mb 54f 52f
8:36am 15 20 mph 1024.2mb 54f 52f
8:30am 11 20 mph 1024.1mb 54f 52f
8:24am 11 16 mph 1024.1mb 54f 52f
8:18am 13 16 mph 1024.2mb 54f 52f
8:12am 10 15 mph 1024.2mb 54f 52f
8:06am 11 16 mph 1024.1mb 54f 52f
8:00am 11 18 mph 1024.3mb 54f 52f
7:54am 9 14 mph 1024.2mb 54f 52f
7:48am 11 17 mph 1024.4mb 54f 51f
7:36am  -  mph 1024.5mb 54f 51f
7:30am  -  mph 1024.4mb 54f 51f
7:24am  -  mph 1024.4mb 54f 51f
7:18am  -  mph 1024.4mb 54f 51f
7:12am  -  mph 1024.5mb 54f 51f
7:06am  -  mph 1024.5mb 54f 51f
7:00am  -  mph 1024.5mb 54f 51f
6:54am  -  mph 1024.5mb 54f 51f
6:48am  -  mph 1024.5mb 54f 51f
6:36am 10 15 mph 1024.4mb 54f 51f
6:30am 10 15 mph 1024.4mb 54f 51f
6:24am 10 14 mph 1024.4mb 54f 51f
6:18am 10 14 mph 1024.5mb 54f 51f
6:12am 9 13 mph 1024.5mb 54f 51f
6:06am 9 14 mph 1024.4mb 54f 51f
6:00am 10 15 mph 1024.4mb 54f 51f
5:54am 9 14 mph 1024.5mb 54f 51f
5:48am 9 14 mph 1024.5mb 54f 51f
5:36am 8 15 mph 1024.4mb 54f 51f
5:30am 9 14 mph 1024.6mb 54f 51f
5:24am 8 11 mph 1024.6mb 54f 51f
5:18am 8 13 mph 1024.7mb 54f 51f
5:12am 8 14 mph 1024.7mb 54f 51f
5:06am 9 14 mph 1024.8mb 54f 51f
5:00am 7 9 mph 1024.8mb 54f 51f
4:54am 9 11 mph 1024.8mb 54f 51f
4:48am 9 13 mph 1024.7mb 54f 51f
Sat 03/28 10:36pm  -  mph 1027.1mb 54f 51f
10:30pm  -  mph 1027.1mb 54f 52f
10:24pm  -  mph 1027.2mb 54f 52f
10:18pm  -  mph 1027.3mb 54f 52f
10:12pm  -  mph 1027.3mb 54f 52f
10:06pm  -  mph 1027.2mb 54f 52f
10:00pm  -  mph 1027.2mb 54f 52f
9:54pm  -  mph 1027.2mb 54f 52f
9:48pm  -  mph 1027.2mb 54f 52f
9:36pm 9 14 mph 1027.3mb 54f 52f
9:30pm 10 15 mph 1027.2mb 54f 52f
9:24pm 9 14 mph 1027.1mb 54f 52f
9:18pm 7 11 mph 1027.1mb 54f 52f
9:12pm 9 13 mph 1027.1mb 54f 52f
9:06pm 8 13 mph 1027mb 54f 52f
9:00pm 10 16 mph 1027mb 54f 52f
8:54pm 13 17 mph 1027mb 54f 53f
8:48pm 9 15 mph 1026.9mb 54f 53f
8:36pm 11 16 mph 1026.9mb 54f 53f
8:30pm 10 16 mph 1026.9mb 54f 53f
8:24pm 9 15 mph 1026.9mb 54f 53f
8:18pm 10 15 mph 1027mb 54f 53f
8:12pm 9 15 mph 1027mb 54f 53f
8:06pm 11 16 mph 1026.9mb 54f 53f
8:00pm 11 16 mph 1026.9mb 54f 53f
7:54pm 13 16 mph 1026.9mb 54f 53f
7:48pm 10 16 mph 1026.9mb 54f 53f
7:36pm 13 16 mph 1027mb 55f 53f
7:30pm 14 20 mph 1026.9mb 55f 53f
7:24pm 11 17 mph 1026.9mb 54f 53f
7:18pm 10 16 mph 1027mb 54f 53f
7:12pm 11 16 mph 1027.1mb 55f 53f
7:06pm 11 17 mph 1027.2mb 55f 53f
7:00pm 13 16 mph 1027.2mb 55f 53f
6:54pm 14 18 mph 1027.3mb 55f 53f
6:48pm 14 17 mph 1027.4mb 55f 53f
6:36pm 13 17 mph 1027.5mb 55f 53f
6:30pm 13 17 mph 1027.4mb 55f 53f
6:24pm 13 17 mph 1027.4mb 55f 53f
6:18pm 14 21 mph 1027.4mb 55f 53f
6:12pm 15 20 mph 1027.4mb 55f 54f
6:06pm 14 18 mph 1027.5mb 54f 54f
6:00pm 14 18 mph 1027.6mb 54f 54f
5:54pm 15 20 mph 1027.6mb 54f 54f
5:48pm 14 18 mph 1027.6mb 54f 54f
5:36pm 15 18 mph 1027.5mb 54f 54f
5:30pm 14 21 mph 1027.5mb 54f 54f
5:24pm 15 20 mph 1027.5mb 54f 54f
5:18pm 13 17 mph 1027.7mb 54f 54f
5:12pm 15 20 mph 1027.6mb 54f 54f
5:06pm 14 20 mph 1027.8mb 54f 54f
5:00pm 16 20 mph 1027.7mb 54f 54f
4:54pm 14 18 mph 1027.9mb 54f 54f
4:48pm 14 18 mph 1028mb 54f 54f
4:36pm 16 20 mph 1028mb 54f 54f
4:30pm 15 18 mph 1028mb 54f 54f
4:24pm 14 20 mph 1028mb 54f 55f
4:18pm 11 17 mph 1027.9mb 54f 55f
4:12pm 14 17 mph 1027.9mb 54f 55f
4:06pm 14 18 mph 1027.9mb 54f 55f
4:00pm 13 17 mph 1027.8mb 54f 55f
3:54pm 14 18 mph 1027.9mb 54f 55f
3:48pm 14 17 mph 1028mb 54f 55f
3:36pm 16 20 mph 1028mb 54f 55f
3:30pm 16 21 mph 1028.1mb 54f 55f
3:24pm 14 20 mph 1028mb 54f 55f
3:18pm 15 20 mph 1028mb 54f 56f
3:12pm 15 21 mph 1028.1mb 54f 55f
3:06pm 14 18 mph 1028.1mb 54f 55f
3:00pm 14 18 mph 1028.2mb 54f 55f
2:54pm 13 20 mph 1028.3mb 54f 56f
2:48pm 16 20 mph 1028.4mb 54f 55f
2:36pm 15 21 mph 1028.3mb 54f 55f
2:30pm 15 20 mph 1028.3mb 54f 55f
2:24pm 13 18 mph 1028.3mb 54f 55f
2:18pm 13 17 mph 1028.4mb 54f 55f
2:12pm 13 17 mph 1028.4mb 54f 55f
2:06pm 9 14 mph 1028.4mb 54f 54f
2:00pm 9 16 mph 1028.5mb 54f 54f
1:54pm 14 17 mph 1028.5mb 54f 54f
1:48pm 14 16 mph 1028.5mb 54f 55f
1:36pm 11 18 mph 1028.4mb 54f 54f
1:30pm 16 20 mph 1028.4mb 54f 54f
1:24pm 13 17 mph 1028.4mb 54f 54f
1:18pm 14 17 mph 1028.3mb 54f 54f
1:12pm 13 16 mph 1028.3mb 54f 55f
1:06pm 13 17 mph 1028.2mb 54f 55f
1:00pm 13 16 mph 1028mb 54f 56f
12:54pm 14 17 mph 1027.9mb 54f 55f
12:48pm 11 16 mph 1027.8mb 54f 55f
12:36pm 11 15 mph 1027.3mb 54f 55f
12:30pm 9 13 mph 1027.4mb 54f 55f
12:24pm 11 16 mph 1027.4mb 54f 55f
12:18pm 10 13 mph 1027.3mb 54f 55f
12:12pm 10 13 mph 1027.3mb 54f 55f
12:06pm 6 11 mph 1027.2mb 54f 54f
12:00pm 9 11 mph 1027.2mb 54f 54f
11:54am 7 10 mph 1027.5mb 54f 54f
11:48am 9 10 mph 1027.5mb 54f 54f
11:36am 8 10 mph 1027.7mb 54f 55f
11:30am 10 13 mph 1027.9mb 54f 54f
11:24am 9 11 mph 1027.9mb 54f 55f
11:18am 9 11 mph 1027.8mb 54f 55f
11:12am 8 11 mph 1027.7mb 54f 54f
11:06am 8 11 mph 1027.7mb 54f 54f
11:00am 8 10 mph 1027.7mb 54f 53f
10:54am 9 11 mph 1027.7mb 54f 54f
10:48am 10 11 mph 1027.6mb 54f 54f
10:36am 8 11 mph 1027.5mb 54f 54f
10:30am 8 10 mph 1027.5mb 54f 53f
10:24am 8 10 mph 1027.4mb 54f 53f
10:18am 7 11 mph 1027.4mb 54f 54f
10:12am 9 11 mph 1027.3mb 54f 54f
10:06am 9 11 mph 1027.3mb 54f 53f
10:00am 10 13 mph 1027.2mb 54f 53f
9:54am 9 11 mph 1027.1mb 54f 53f
9:48am 8 10 mph 1027.1mb 54f 53f
9:36am 11 13 mph 1026.9mb 54f 53f